Ye Chi — VRFV6 — position and weather

sailwx.info

Track history (hours):
 
Tides and Currents Weather Stations Pressure Air Temp Water Temp Dewpoint Dewpoint Depression Visibility Wind Speed Wind Dir Waves Ship Positions

Ye Chi

Last reported at 2014-Aug-22 21:31 UTC. Time now 2014-Aug-22 21:40 UTC.
Position N 31°23' E 121°33'.

Length 187 m; draft 7.5 m.

Type: Ship. MMSI: 477621300.

Date/timePositionNaut miles runAvg speedWind from/ knotsBaromVisibWave heightAir tempDewpointWater temp
2014-Aug-22 21:31N 31°23' E 121°33'0 0.0
2014-Aug-22 20:31N 31°23' E 121°33'0 0.0
2014-Aug-22 19:19N 31°23' E 121°33'0 0.0
2014-Aug-22 18:31N 31°23' E 121°33'0 0.0
2014-Aug-22 17:31N 31°23' E 121°33'0 0.0
2014-Aug-22 16:25N 31°23' E 121°33'0 0.0
2014-Aug-22 15:25N 31°23' E 121°33'0 0.0
2014-Aug-22 14:13N 31°23' E 121°33'0 0.0
2014-Aug-22 13:07N 31°23' E 121°33'0 0.0
2014-Aug-22 12:31N 31°23' E 121°33'0 0.0
2014-Aug-22 10:31N 31°23' E 121°33'0 0.0
2014-Aug-22 07:19N 31°23' E 121°33'0 0.1
2014-Aug-22 06:31N 31°23' E 121°33'0 0.1
2014-Aug-22 05:31N 31°23' E 121°33'0 0.0
2014-Aug-22 04:25N 31°23' E 121°33'0 0.1
2014-Aug-22 03:31N 31°23' E 121°33'0 0.1
2014-Aug-22 02:31N 31°23' E 121°33'2 2.2
2014-Aug-22 01:33N 31°23' E 121°36'5 4.6
2014-Aug-22 00:32N 31°22' E 121°41'0 0.1
2014-Aug-21 22:28N 31°22' E 121°41'0 0.0
2014-Aug-21 21:28N 31°22' E 121°41'0 0.0
2014-Aug-21 20:10N 31°22' E 121°41'0 0.0
2014-Aug-21 19:28N 31°22' E 121°41'0 0.0
2014-Aug-21 18:28N 31°22' E 121°41'0 0.0
2014-Aug-21 17:22N 31°22' E 121°41'0 0.2
2014-Aug-21 16:22N 31°22' E 121°41'0 0.1
2014-Aug-21 15:28N 31°22' E 121°41'0 0.0
2014-Aug-21 14:10N 31°22' E 121°41'0 0.1
2014-Aug-21 13:33N 31°22' E 121°41'1 0.7
2014-Aug-21 12:33N 31°22' E 121°42'0 0.0
2014-Aug-21 11:33N 31°22' E 121°42'0 0.0
2014-Aug-21 10:29N 31°22' E 121°42'0 0.0
2014-Aug-21 09:20N 31°22' E 121°42'0 0.0
2014-Aug-21 08:33N 31°22' E 121°42'0 0.0
2014-Aug-21 07:32N 31°22' E 121°42'0 0.0
2014-Aug-21 06:18N 31°22' E 121°42'0 0.0
2014-Aug-21 04:32N 31°22' E 121°42'0 0.0
2014-Aug-21 02:33N 31°22' E 121°42'0 0.0
2014-Aug-21 01:26N 31°22' E 121°42'0 0.0
2014-Aug-21 00:33N 31°22' E 121°42'0 0.0
2014-Aug-20 23:33N 31°22' E 121°42'0 0.0
2014-Aug-20 20:27N 31°22' E 121°42'0 0.0
2014-Aug-20 19:33N 31°22' E 121°42'0 0.0
2014-Aug-20 18:32N 31°22' E 121°42'0 0.0
2014-Aug-20 17:32N 31°22' E 121°42'0 0.0
2014-Aug-20 16:30N 31°22' E 121°42'0 0.0
2014-Aug-20 15:33N 31°22' E 121°42'0 0.0
2014-Aug-20 14:33N 31°22' E 121°42'0 0.0
2014-Aug-20 13:33N 31°22' E 121°42'0 0.0
2014-Aug-20 11:26N 31°22' E 121°42'0 0.0
2014-Aug-20 10:25N 31°22' E 121°42'0 0.0
2014-Aug-20 09:33N 31°22' E 121°42'0 0.0
2014-Aug-20 08:33N 31°22' E 121°42'0 0.0
2014-Aug-20 07:32N 31°22' E 121°42'0 0.0
2014-Aug-20 06:33N 31°22' E 121°42'0 0.0
2014-Aug-20 05:33N 31°22' E 121°42'0 0.0
2014-Aug-20 04:31N 31°22' E 121°42'0 0.0
2014-Aug-20 03:33N 31°22' E 121°42'0 0.0
2014-Aug-20 02:33N 31°22' E 121°42'0 0.0
2014-Aug-20 01:33N 31°22' E 121°42'0 0.1
2014-Aug-20 00:31N 31°22' E 121°42'0 0.1
2014-Aug-19 23:33N 31°22' E 121°42'0 0.0
2014-Aug-19 22:33N 31°22' E 121°42'0 0.0
2014-Aug-19 21:33N 31°22' E 121°42'0 0.0
2014-Aug-19 20:33N 31°22' E 121°42'0 0.0
2014-Aug-19 19:33N 31°22' E 121°42'0 0.0
2014-Aug-19 18:33N 31°22' E 121°42'0 0.0
2014-Aug-19 17:33N 31°22' E 121°42'0 0.0
2014-Aug-19 16:32N 31°22' E 121°42'0 0.0
2014-Aug-19 15:33N 31°22' E 121°42'0 0.0
2014-Aug-19 14:33N 31°22' E 121°42'0 0.0
2014-Aug-19 13:33N 31°22' E 121°42'0 0.0
2014-Aug-19 12:33N 31°22' E 121°42'0 0.0
2014-Aug-19 11:33N 31°22' E 121°42'0 0.0
2014-Aug-19 10:25N 31°22' E 121°42'0 0.0
2014-Aug-19 09:31N 31°22' E 121°42'0 0.0
2014-Aug-18 15:33N 31°22' E 121°42'0 0.0
2014-Aug-18 14:33N 31°22' E 121°42'0 0.0
2014-Aug-18 13:33N 31°22' E 121°42'0 0.0
2014-Aug-18 12:33N 31°22' E 121°42'0 0.0
2014-Aug-18 11:33N 31°22' E 121°42'0 0.0
2014-Aug-18 10:33N 31°22' E 121°42'0 0.0
2014-Aug-18 09:33N 31°22' E 121°42'0 0.0
2014-Aug-18 08:32N 31°22' E 121°42'0 0.0
2014-Aug-18 07:25N 31°22' E 121°42'0 0.0
2014-Aug-18 06:33N 31°22' E 121°42'0 0.0
2014-Aug-18 05:33N 31°22' E 121°42'0 0.0
2014-Aug-18 04:12N 31°22' E 121°42'0 0.0
2014-Aug-18 03:33N 31°22' E 121°42'0 0.0
2014-Aug-18 02:33N 31°22' E 121°42'0 0.0
2014-Aug-18 01:31N 31°22' E 121°42'0 0.0
2014-Aug-18 00:22N 31°22' E 121°42'0 0.0
2014-Aug-17 18:27N 31°22' E 121°42'0 0.0
2014-Aug-17 16:31N 31°22' E 121°42'0 0.0
2014-Aug-17 15:32N 31°22' E 121°42'0 0.0
2014-Aug-17 14:29N 31°22' E 121°42'0 0.0
2014-Aug-17 13:31N 31°22' E 121°42'0 0.1
2014-Aug-17 12:33N 31°22' E 121°42'0 0.0
2014-Aug-17 11:10N 31°22' E 121°42'0 0.0
2014-Aug-17 10:30N 31°22' E 121°42'0 0.0
2014-Aug-17 09:33N 31°22' E 121°42'0 0.0
2014-Aug-17 08:33N 31°22' E 121°42'0 0.0
2014-Aug-17 07:33N 31°22' E 121°42'0 0.0
2014-Aug-17 06:31N 31°22' E 121°42'0 0.0
2014-Aug-17 05:07N 31°22' E 121°42'0 0.0
2014-Aug-17 03:31N 31°22' E 121°42'0 0.0
2014-Aug-17 02:33N 31°22' E 121°42'0 0.0
2014-Aug-17 01:24N 31°22' E 121°42'0 0.0
2014-Aug-17 00:28N 31°22' E 121°42'0 0.0
2014-Aug-16 23:33N 31°22' E 121°42'0 0.0
2014-Aug-16 22:33N 31°22' E 121°42'0 0.0
2014-Aug-16 21:33N 31°22' E 121°42'0 0.0
2014-Aug-16 20:33N 31°22' E 121°42'0 0.0
2014-Aug-16 19:32N 31°22' E 121°42'0 0.0
2014-Aug-16 18:26N 31°22' E 121°42'0 0.0
2014-Aug-16 17:30N 31°22' E 121°42'0 0.0
2014-Aug-16 16:33N 31°22' E 121°42'0 0.0
2014-Aug-16 15:33N 31°22' E 121°42'0 0.0
2014-Aug-16 14:33N 31°22' E 121°42'0 0.0
2014-Aug-16 13:33N 31°22' E 121°42'0 0.0
2014-Aug-16 12:33N 31°22' E 121°42'0 0.0
2014-Aug-16 11:32N 31°22' E 121°42'0 0.0
2014-Aug-16 10:32N 31°22' E 121°42'0 0.0
2014-Aug-16 09:33N 31°22' E 121°42'0 0.0
2014-Aug-16 08:32N 31°22' E 121°42'0 0.0
2014-Aug-16 07:33N 31°22' E 121°42'0 0.0
2014-Aug-16 06:32N 31°22' E 121°42'0 0.0
2014-Aug-16 05:33N 31°22' E 121°42'0 0.0
2014-Aug-16 04:33N 31°22' E 121°42'0 0.0
2014-Aug-16 03:29N 31°22' E 121°42'0 0.0
2014-Aug-16 02:33N 31°22' E 121°42'0 0.0
2014-Aug-16 01:32N 31°22' E 121°42'0 0.0
2014-Aug-16 00:33N 31°22' E 121°42'0 0.0
2014-Aug-15 23:33N 31°22' E 121°42'0 0.0
2014-Aug-15 22:33N 31°22' E 121°42'0 0.0
2014-Aug-15 21:30N 31°22' E 121°42'0 0.0
2014-Aug-15 20:22N 31°22' E 121°42'0 0.0
2014-Aug-15 19:32N 31°22' E 121°42'0 0.0
2014-Aug-15 17:33N 31°22' E 121°42'0 0.0
2014-Aug-15 16:32N 31°22' E 121°42'0 0.0
2014-Aug-15 15:33N 31°22' E 121°42'0 0.0
2014-Aug-15 14:33N 31°22' E 121°42'0 0.0
2014-Aug-15 13:22N 31°22' E 121°42'0 0.0
2014-Aug-15 12:29N 31°22' E 121°42'0 0.0
2014-Aug-15 11:33N 31°22' E 121°42'0 0.0
2014-Aug-15 10:33N 31°22' E 121°42'0 0.0
2014-Aug-15 09:23N 31°22' E 121°42'0 0.0
2014-Aug-15 08:33N 31°22' E 121°42'0 0.0
2014-Aug-15 07:33N 31°22' E 121°42'0 0.0
2014-Aug-15 06:32N 31°22' E 121°42'0 0.0
2014-Aug-15 05:31N 31°22' E 121°42'0 0.0
2014-Aug-15 04:28N 31°22' E 121°42'0 0.0
2014-Aug-15 03:27N 31°22' E 121°42'0 0.0
2014-Aug-15 02:33N 31°22' E 121°42'0 0.0
2014-Aug-15 01:33N 31°22' E 121°42'0 0.0
2014-Aug-15 00:33N 31°22' E 121°42'0 0.0
2014-Aug-14 23:31N 31°22' E 121°42'0 0.0
2014-Aug-14 22:32N 31°22' E 121°42'0 0.0
2014-Aug-14 21:32N 31°22' E 121°42'0 0.0
2014-Aug-14 20:32N 31°22' E 121°42'0 0.0
2014-Aug-14 19:28N 31°22' E 121°42'0 0.0
2014-Aug-14 18:17N 31°22' E 121°42'0 0.0
2014-Aug-14 17:33N 31°22' E 121°42'0 0.0
2014-Aug-14 15:28N 31°22' E 121°42'0 0.0
2014-Aug-14 13:21N 31°22' E 121°42'0 0.0
2014-Aug-14 12:26N 31°22' E 121°42'0 0.0
2014-Aug-14 11:13N 31°22' E 121°42'0 0.0
2014-Aug-14 10:22N 31°22' E 121°42'0 0.0
2014-Aug-14 09:07N 31°22' E 121°42'0 0.0
2014-Aug-14 08:28N 31°22' E 121°42'0 0.0
2014-Aug-14 07:31N 31°22' E 121°42'0 0.0
2014-Aug-14 06:33N 31°22' E 121°42'0 0.0
2014-Aug-14 05:33N 31°22' E 121°42'0 0.0
2014-Aug-14 04:32N 31°22' E 121°42'0 0.0
2014-Aug-14 03:33N 31°22' E 121°42'0 0.0
2014-Aug-14 01:32N 31°22' E 121°42'0 0.0
2014-Aug-14 00:31N 31°22' E 121°42'0 0.0
2014-Aug-13 23:33N 31°22' E 121°42'0 0.0
2014-Aug-13 22:28N 31°22' E 121°42'0 0.0
2014-Aug-13 21:33N 31°22' E 121°42'0 0.0
2014-Aug-13 20:33N 31°22' E 121°42'0 0.0
2014-Aug-13 19:33N 31°22' E 121°42'0 0.0
2014-Aug-13 18:33N 31°22' E 121°42'0 0.0
2014-Aug-13 17:33N 31°22' E 121°42'0 0.0
2014-Aug-13 16:33N 31°22' E 121°42'0 0.0
2014-Aug-13 15:33N 31°22' E 121°42'0 0.0
2014-Aug-13 14:33N 31°22' E 121°42'0 0.0
2014-Aug-13 13:30N 31°22' E 121°42'0 0.0
2014-Aug-13 12:32N 31°22' E 121°42'0 0.0
2014-Aug-13 11:32N 31°22' E 121°42'0 0.0
2014-Aug-13 10:32N 31°22' E 121°42'0 0.0
2014-Aug-13 09:33N 31°22' E 121°42'0 0.0
2014-Aug-13 08:33N 31°22' E 121°42'0 0.0
2014-Aug-13 07:32N 31°22' E 121°42'0 0.0
2014-Aug-13 06:33N 31°22' E 121°42'0 0.0
2014-Aug-13 05:33N 31°22' E 121°42'0 0.0
2014-Aug-13 04:33N 31°22' E 121°42'0 0.0
2014-Aug-13 03:32N 31°22' E 121°42'0 0.0
2014-Aug-13 02:33N 31°22' E 121°42'0 0.0
2014-Aug-13 01:32N 31°22' E 121°42'0 0.0
2014-Aug-13 00:33N 31°22' E 121°42'0 0.0
2014-Aug-12 23:30N 31°22' E 121°42'0 0.0
2014-Aug-12 22:33N 31°22' E 121°42'0 0.0
2014-Aug-12 21:32N 31°22' E 121°42'  
Track history (hours):
 
Tides and Currents Weather Stations Pressure Air Temp Water Temp Dewpoint Dewpoint Depression Visibility Wind Speed Wind Dir Waves Ship Positions

Ye Chi

Last reported at 2014-Aug-22 21:31 UTC. Time now 2014-Aug-22 21:40 UTC.
Position N 31°23' E 121°33'.

Length 187 m; draft 7.5 m.

Type: Ship. MMSI: 477621300.

Date/timePositionNaut miles runAvg speedWind from/ knotsBaromVisibWave heightAir tempDewpointWater temp
2014-Aug-22 21:31N 31°23' E 121°33'0 0.0
2014-Aug-22 20:31N 31°23' E 121°33'0 0.0
2014-Aug-22 19:19N 31°23' E 121°33'0 0.0
2014-Aug-22 18:31N 31°23' E 121°33'0 0.0
2014-Aug-22 17:31N 31°23' E 121°33'0 0.0
2014-Aug-22 16:25N 31°23' E 121°33'0 0.0
2014-Aug-22 15:25N 31°23' E 121°33'0 0.0
2014-Aug-22 14:13N 31°23' E 121°33'0 0.0
2014-Aug-22 13:07N 31°23' E 121°33'0 0.0
2014-Aug-22 12:31N 31°23' E 121°33'0 0.0
2014-Aug-22 10:31N 31°23' E 121°33'0 0.0
2014-Aug-22 07:19N 31°23' E 121°33'0 0.1
2014-Aug-22 06:31N 31°23' E 121°33'0 0.1
2014-Aug-22 05:31N 31°23' E 121°33'0 0.0
2014-Aug-22 04:25N 31°23' E 121°33'0 0.1
2014-Aug-22 03:31N 31°23' E 121°33'0 0.1
2014-Aug-22 02:31N 31°23' E 121°33'2 2.2
2014-Aug-22 01:33N 31°23' E 121°36'5 4.6
2014-Aug-22 00:32N 31°22' E 121°41'0 0.1
2014-Aug-21 22:28N 31°22' E 121°41'0 0.0
2014-Aug-21 21:28N 31°22' E 121°41'0 0.0
2014-Aug-21 20:10N 31°22' E 121°41'0 0.0
2014-Aug-21 19:28N 31°22' E 121°41'0 0.0
2014-Aug-21 18:28N 31°22' E 121°41'0 0.0
2014-Aug-21 17:22N 31°22' E 121°41'0 0.2
2014-Aug-21 16:22N 31°22' E 121°41'0 0.1
2014-Aug-21 15:28N 31°22' E 121°41'0 0.0
2014-Aug-21 14:10N 31°22' E 121°41'0 0.1
2014-Aug-21 13:33N 31°22' E 121°41'1 0.7
2014-Aug-21 12:33N 31°22' E 121°42'0 0.0
2014-Aug-21 11:33N 31°22' E 121°42'0 0.0
2014-Aug-21 10:29N 31°22' E 121°42'0 0.0
2014-Aug-21 09:20N 31°22' E 121°42'0 0.0
2014-Aug-21 08:33N 31°22' E 121°42'0 0.0
2014-Aug-21 07:32N 31°22' E 121°42'0 0.0
2014-Aug-21 06:18N 31°22' E 121°42'0 0.0
2014-Aug-21 04:32N 31°22' E 121°42'0 0.0
2014-Aug-21 02:33N 31°22' E 121°42'0 0.0
2014-Aug-21 01:26N 31°22' E 121°42'0 0.0
2014-Aug-21 00:33N 31°22' E 121°42'0 0.0
2014-Aug-20 23:33N 31°22' E 121°42'0 0.0
2014-Aug-20 20:27N 31°22' E 121°42'0 0.0
2014-Aug-20 19:33N 31°22' E 121°42'0 0.0
2014-Aug-20 18:32N 31°22' E 121°42'0 0.0
2014-Aug-20 17:32N 31°22' E 121°42'0 0.0
2014-Aug-20 16:30N 31°22' E 121°42'0 0.0
2014-Aug-20 15:33N 31°22' E 121°42'0 0.0
2014-Aug-20 14:33N 31°22' E 121°42'0 0.0
2014-Aug-20 13:33N 31°22' E 121°42'0 0.0
2014-Aug-20 11:26N 31°22' E 121°42'0 0.0
2014-Aug-20 10:25N 31°22' E 121°42'0 0.0
2014-Aug-20 09:33N 31°22' E 121°42'0 0.0
2014-Aug-20 08:33N 31°22' E 121°42'0 0.0
2014-Aug-20 07:32N 31°22' E 121°42'0 0.0
2014-Aug-20 06:33N 31°22' E 121°42'0 0.0
2014-Aug-20 05:33N 31°22' E 121°42'0 0.0
2014-Aug-20 04:31N 31°22' E 121°42'0 0.0
2014-Aug-20 03:33N 31°22' E 121°42'0 0.0
2014-Aug-20 02:33N 31°22' E 121°42'0 0.0
2014-Aug-20 01:33N 31°22' E 121°42'0 0.1
2014-Aug-20 00:31N 31°22' E 121°42'0 0.1
2014-Aug-19 23:33N 31°22' E 121°42'0 0.0
2014-Aug-19 22:33N 31°22' E 121°42'0 0.0
2014-Aug-19 21:33N 31°22' E 121°42'0 0.0
2014-Aug-19 20:33N 31°22' E 121°42'0 0.0
2014-Aug-19 19:33N 31°22' E 121°42'0 0.0
2014-Aug-19 18:33N 31°22' E 121°42'0 0.0
2014-Aug-19 17:33N 31°22' E 121°42'0 0.0
2014-Aug-19 16:32N 31°22' E 121°42'0 0.0
2014-Aug-19 15:33N 31°22' E 121°42'0 0.0
2014-Aug-19 14:33N 31°22' E 121°42'0 0.0
2014-Aug-19 13:33N 31°22' E 121°42'0 0.0
2014-Aug-19 12:33N 31°22' E 121°42'0 0.0
2014-Aug-19 11:33N 31°22' E 121°42'0 0.0
2014-Aug-19 10:25N 31°22' E 121°42'0 0.0
2014-Aug-19 09:31N 31°22' E 121°42'0 0.0
2014-Aug-18 15:33N 31°22' E 121°42'0 0.0
2014-Aug-18 14:33N 31°22' E 121°42'0 0.0
2014-Aug-18 13:33N 31°22' E 121°42'0 0.0
2014-Aug-18 12:33N 31°22' E 121°42'0 0.0
2014-Aug-18 11:33N 31°22' E 121°42'0 0.0
2014-Aug-18 10:33N 31°22' E 121°42'0 0.0
2014-Aug-18 09:33N 31°22' E 121°42'0 0.0
2014-Aug-18 08:32N 31°22' E 121°42'0 0.0
2014-Aug-18 07:25N 31°22' E 121°42'0 0.0
2014-Aug-18 06:33N 31°22' E 121°42'0 0.0
2014-Aug-18 05:33N 31°22' E 121°42'0 0.0
2014-Aug-18 04:12N 31°22' E 121°42'0 0.0
2014-Aug-18 03:33N 31°22' E 121°42'0 0.0
2014-Aug-18 02:33N 31°22' E 121°42'0 0.0
2014-Aug-18 01:31N 31°22' E 121°42'0 0.0
2014-Aug-18 00:22N 31°22' E 121°42'0 0.0
2014-Aug-17 18:27N 31°22' E 121°42'0 0.0
2014-Aug-17 16:31N 31°22' E 121°42'0 0.0
2014-Aug-17 15:32N 31°22' E 121°42'0 0.0
2014-Aug-17 14:29N 31°22' E 121°42'0 0.0
2014-Aug-17 13:31N 31°22' E 121°42'0 0.1
2014-Aug-17 12:33N 31°22' E 121°42'0 0.0
2014-Aug-17 11:10N 31°22' E 121°42'0 0.0
2014-Aug-17 10:30N 31°22' E 121°42'0 0.0
2014-Aug-17 09:33N 31°22' E 121°42'0 0.0
2014-Aug-17 08:33N 31°22' E 121°42'0 0.0
2014-Aug-17 07:33N 31°22' E 121°42'0 0.0
2014-Aug-17 06:31N 31°22' E 121°42'0 0.0
2014-Aug-17 05:07N 31°22' E 121°42'0 0.0
2014-Aug-17 03:31N 31°22' E 121°42'0 0.0
2014-Aug-17 02:33N 31°22' E 121°42'0 0.0
2014-Aug-17 01:24N 31°22' E 121°42'0 0.0
2014-Aug-17 00:28N 31°22' E 121°42'0 0.0
2014-Aug-16 23:33N 31°22' E 121°42'0 0.0
2014-Aug-16 22:33N 31°22' E 121°42'0 0.0
2014-Aug-16 21:33N 31°22' E 121°42'0 0.0
2014-Aug-16 20:33N 31°22' E 121°42'0 0.0
2014-Aug-16 19:32N 31°22' E 121°42'0 0.0
2014-Aug-16 18:26N 31°22' E 121°42'0 0.0
2014-Aug-16 17:30N 31°22' E 121°42'0 0.0
2014-Aug-16 16:33N 31°22' E 121°42'0 0.0
2014-Aug-16 15:33N 31°22' E 121°42'0 0.0
2014-Aug-16 14:33N 31°22' E 121°42'0 0.0
2014-Aug-16 13:33N 31°22' E 121°42'0 0.0
2014-Aug-16 12:33N 31°22' E 121°42'0 0.0
2014-Aug-16 11:32N 31°22' E 121°42'0 0.0
2014-Aug-16 10:32N 31°22' E 121°42'0 0.0
2014-Aug-16 09:33N 31°22' E 121°42'0 0.0
2014-Aug-16 08:32N 31°22' E 121°42'0 0.0
2014-Aug-16 07:33N 31°22' E 121°42'0 0.0
2014-Aug-16 06:32N 31°22' E 121°42'0 0.0
2014-Aug-16 05:33N 31°22' E 121°42'0 0.0
2014-Aug-16 04:33N 31°22' E 121°42'0 0.0
2014-Aug-16 03:29N 31°22' E 121°42'0 0.0
2014-Aug-16 02:33N 31°22' E 121°42'0 0.0
2014-Aug-16 01:32N 31°22' E 121°42'0 0.0
2014-Aug-16 00:33N 31°22' E 121°42'0 0.0
2014-Aug-15 23:33N 31°22' E 121°42'0 0.0
2014-Aug-15 22:33N 31°22' E 121°42'0 0.0
2014-Aug-15 21:30N 31°22' E 121°42'0 0.0
2014-Aug-15 20:22N 31°22' E 121°42'0 0.0
2014-Aug-15 19:32N 31°22' E 121°42'0 0.0
2014-Aug-15 17:33N 31°22' E 121°42'0 0.0
2014-Aug-15 16:32N 31°22' E 121°42'0 0.0
2014-Aug-15 15:33N 31°22' E 121°42'0 0.0
2014-Aug-15 14:33N 31°22' E 121°42'0 0.0
2014-Aug-15 13:22N 31°22' E 121°42'0 0.0
2014-Aug-15 12:29N 31°22' E 121°42'0 0.0
2014-Aug-15 11:33N 31°22' E 121°42'0 0.0
2014-Aug-15 10:33N 31°22' E 121°42'0 0.0
2014-Aug-15 09:23N 31°22' E 121°42'0 0.0
2014-Aug-15 08:33N 31°22' E 121°42'0 0.0
2014-Aug-15 07:33N 31°22' E 121°42'0 0.0
2014-Aug-15 06:32N 31°22' E 121°42'0 0.0
2014-Aug-15 05:31N 31°22' E 121°42'0 0.0
2014-Aug-15 04:28N 31°22' E 121°42'0 0.0
2014-Aug-15 03:27N 31°22' E 121°42'0 0.0
2014-Aug-15 02:33N 31°22' E 121°42'0 0.0
2014-Aug-15 01:33N 31°22' E 121°42'0 0.0
2014-Aug-15 00:33N 31°22' E 121°42'0 0.0
2014-Aug-14 23:31N 31°22' E 121°42'0 0.0
2014-Aug-14 22:32N 31°22' E 121°42'0 0.0
2014-Aug-14 21:32N 31°22' E 121°42'0 0.0
2014-Aug-14 20:32N 31°22' E 121°42'0 0.0
2014-Aug-14 19:28N 31°22' E 121°42'0 0.0
2014-Aug-14 18:17N 31°22' E 121°42'0 0.0
2014-Aug-14 17:33N 31°22' E 121°42'0 0.0
2014-Aug-14 15:28N 31°22' E 121°42'0 0.0
2014-Aug-14 13:21N 31°22' E 121°42'0 0.0
2014-Aug-14 12:26N 31°22' E 121°42'0 0.0
2014-Aug-14 11:13N 31°22' E 121°42'0 0.0
2014-Aug-14 10:22N 31°22' E 121°42'0 0.0
2014-Aug-14 09:07N 31°22' E 121°42'0 0.0
2014-Aug-14 08:28N 31°22' E 121°42'0 0.0
2014-Aug-14 07:31N 31°22' E 121°42'0 0.0
2014-Aug-14 06:33N 31°22' E 121°42'0 0.0
2014-Aug-14 05:33N 31°22' E 121°42'0 0.0
2014-Aug-14 04:32N 31°22' E 121°42'0 0.0
2014-Aug-14 03:33N 31°22' E 121°42'0 0.0
2014-Aug-14 01:32N 31°22' E 121°42'0 0.0
2014-Aug-14 00:31N 31°22' E 121°42'0 0.0
2014-Aug-13 23:33N 31°22' E 121°42'0 0.0
2014-Aug-13 22:28N 31°22' E 121°42'0 0.0
2014-Aug-13 21:33N 31°22' E 121°42'0 0.0
2014-Aug-13 20:33N 31°22' E 121°42'0 0.0
2014-Aug-13 19:33N 31°22' E 121°42'0 0.0
2014-Aug-13 18:33N 31°22' E 121°42'0 0.0
2014-Aug-13 17:33N 31°22' E 121°42'0 0.0
2014-Aug-13 16:33N 31°22' E 121°42'0 0.0
2014-Aug-13 15:33N 31°22' E 121°42'0 0.0
2014-Aug-13 14:33N 31°22' E 121°42'0 0.0
2014-Aug-13 13:30N 31°22' E 121°42'0 0.0
2014-Aug-13 12:32N 31°22' E 121°42'0 0.0
2014-Aug-13 11:32N 31°22' E 121°42'0 0.0
2014-Aug-13 10:32N 31°22' E 121°42'0 0.0
2014-Aug-13 09:33N 31°22' E 121°42'0 0.0
2014-Aug-13 08:33N 31°22' E 121°42'0 0.0
2014-Aug-13 07:32N 31°22' E 121°42'0 0.0
2014-Aug-13 06:33N 31°22' E 121°42'0 0.0
2014-Aug-13 05:33N 31°22' E 121°42'0 0.0
2014-Aug-13 04:33N 31°22' E 121°42'0 0.0
2014-Aug-13 03:32N 31°22' E 121°42'0 0.0
2014-Aug-13 02:33N 31°22' E 121°42'0 0.0
2014-Aug-13 01:32N 31°22' E 121°42'0 0.0
2014-Aug-13 00:33N 31°22' E 121°42'0 0.0
2014-Aug-12 23:30N 31°22' E 121°42'0 0.0
2014-Aug-12 22:33N 31°22' E 121°42'0 0.0
2014-Aug-12 21:32N 31°22' E 121°42'  

Dump ship's entire track history